createdAt,value
2023-03-24T00:01:58.448Z,98792.78
2023-03-24T00:06:02.745Z,98786.16
2023-03-24T00:10:09.485Z,98776.50
2023-03-24T00:14:12.499Z,98778.28
2023-03-24T00:18:14.713Z,98789.53
2023-03-24T00:22:17.055Z,98779.50
2023-03-24T00:26:19.107Z,98790.00
2023-03-24T00:30:21.613Z,98800.59
2023-03-24T00:34:23.906Z,98796.06
2023-03-24T00:38:27.011Z,98801.97
2023-03-24T00:42:29.488Z,98800.72
2023-03-24T00:46:33.808Z,98796.34
2023-03-24T00:50:35.913Z,98787.63
2023-03-24T00:54:40.634Z,98782.31
2023-03-24T00:58:43.107Z,98783.25
2023-03-24T01:02:46.889Z,98776.44
2023-03-24T01:06:49.877Z,98775.63
2023-03-24T01:10:55.768Z,98776.56
2023-03-24T01:15:00.994Z,98777.03
2023-03-24T01:19:04.183Z,98777.13
2023-03-24T01:23:07.311Z,98775.63
2023-03-24T01:27:09.884Z,98783.34
2023-03-24T01:31:12.515Z,98774.38
2023-03-24T01:35:14.982Z,98766.00
2023-03-24T01:39:17.222Z,98762.91
2023-03-24T01:43:27.716Z,98760.59
2023-03-24T01:47:29.888Z,98753.94
2023-03-24T01:51:42.172Z,98764.28
2023-03-24T01:55:48.836Z,98764.97
2023-03-24T01:59:59.595Z,98761.41
2023-03-24T02:04:31.035Z,98761.28
2023-03-24T02:08:55.104Z,98760.81
2023-03-24T02:13:01.486Z,98752.13
2023-03-24T02:17:09.983Z,98762.47
2023-03-24T02:21:12.230Z,98764.56
2023-03-24T02:25:51.429Z,98756.09
2023-03-24T02:29:56.373Z,98747.22
2023-03-24T02:34:07.559Z,98755.84
2023-03-24T02:38:51.526Z,98755.69
2023-03-24T02:42:56.743Z,98746.19
2023-03-24T02:47:18.896Z,98739.91
2023-03-24T02:51:56.397Z,98746.78
2023-03-24T02:56:19.643Z,98732.88
2023-03-24T03:00:59.391Z,98736.91
2023-03-24T03:05:36.820Z,98734.94
2023-03-24T03:09:49.500Z,98746.78
2023-03-24T03:14:00.817Z,98742.75
2023-03-24T03:18:11.554Z,98738.13
2023-03-24T03:22:19.050Z,98751.44
2023-03-24T03:26:28.779Z,98752.75
2023-03-24T03:30:40.134Z,98757.25
2023-03-24T03:34:45.278Z,98749.00
2023-03-24T03:39:13.943Z,98743.56
2023-03-24T03:43:16.686Z,98746.63
2023-03-24T03:47:21.369Z,98746.31
2023-03-24T03:51:24.524Z,98742.69
2023-03-24T03:55:31.782Z,98741.69
2023-03-24T03:59:36.834Z,98744.88
2023-03-24T04:04:09.766Z,98757.31
2023-03-24T04:08:42.825Z,98749.13
2023-03-24T04:13:25.364Z,98743.63
2023-03-24T04:18:06.604Z,98750.09
2023-03-24T04:22:57.781Z,98742.78
2023-03-24T04:27:09.696Z,98735.97
2023-03-24T04:31:27.187Z,98743.91
2023-03-24T04:35:35.814Z,98748.53
2023-03-24T04:40:06.025Z,98753.56
2023-03-24T04:44:10.804Z,98762.03
2023-03-24T04:48:26.246Z,98752.50
2023-03-24T04:52:42.774Z,98757.03
2023-03-24T04:56:54.112Z,98757.19
2023-03-24T05:01:06.035Z,98761.44
2023-03-24T05:05:08.785Z,98758.81
2023-03-24T05:09:23.891Z,98755.25
2023-03-24T05:13:26.088Z,98757.56
2023-03-24T05:17:32.513Z,98763.84
2023-03-24T05:21:35.282Z,98773.91
2023-03-24T05:25:39.098Z,98769.03
2023-03-24T05:29:41.370Z,98770.41
2023-03-24T05:33:45.841Z,98766.34
2023-03-24T05:37:51.897Z,98769.72
2023-03-24T05:41:54.541Z,98768.41
2023-03-24T05:45:56.809Z,98771.66
2023-03-24T05:50:06.004Z,98771.03
2023-03-24T05:54:08.655Z,98778.31
2023-03-24T05:58:16.629Z,98798.75
2023-03-24T06:02:25.235Z,98788.88
2023-03-24T06:06:33.178Z,98797.78
2023-03-24T06:10:37.032Z,98806.22
2023-03-24T06:19:24.847Z,98810.59
2023-03-24T06:23:47.268Z,98819.28
2023-03-24T06:27:52.967Z,98813.44
2023-03-24T06:31:58.425Z,98814.63
2023-03-24T06:36:02.117Z,98819.38
2023-03-24T06:40:07.344Z,98825.72
2023-03-24T06:44:09.840Z,98813.28
2023-03-24T06:48:12.286Z,98814.44
2023-03-24T06:52:14.448Z,98824.72
2023-03-24T06:56:20.080Z,98808.50
2023-03-24T07:00:31.565Z,98815.03
2023-03-24T07:04:55.220Z,98806.13
2023-03-24T07:09:02.504Z,98801.88
2023-03-24T07:13:07.100Z,98803.25
2023-03-24T07:17:11.345Z,98813.00
2023-03-24T07:21:30.942Z,98818.78
2023-03-24T07:25:53.896Z,98820.97
2023-03-24T07:30:14.605Z,98828.69
2023-03-24T07:34:20.032Z,98825.94
2023-03-24T07:38:24.834Z,98808.66
2023-03-24T07:42:29.854Z,98809.53
2023-03-24T07:46:52.713Z,98813.34
2023-03-24T07:50:56.130Z,98817.22
2023-03-24T07:55:16.883Z,98818.06
2023-03-24T07:59:54.399Z,98822.56
2023-03-24T08:04:17.618Z,98831.69
2023-03-24T08:08:32.473Z,98827.22
2023-03-24T08:12:34.560Z,98820.34
2023-03-24T08:16:39.112Z,98823.88
2023-03-24T08:20:41.238Z,98828.28
2023-03-24T08:24:43.311Z,98829.91
2023-03-24T08:28:45.455Z,98825.63
2023-03-24T08:33:05.957Z,98811.31
2023-03-24T08:37:08.769Z,98811.38
2023-03-24T08:41:10.992Z,98799.66
2023-03-24T08:45:13.762Z,98800.47
2023-03-24T08:49:17.129Z,98797.78
2023-03-24T08:53:19.485Z,98794.53
2023-03-24T08:57:21.860Z,98793.44
2023-03-24T09:01:24.828Z,98793.97
2023-03-24T09:05:43.222Z,98804.88
2023-03-24T09:09:46.265Z,98796.22
2023-03-24T09:13:48.753Z,98802.00
2023-03-24T09:17:51.077Z,98795.19
2023-03-24T09:21:53.243Z,98790.75
2023-03-24T09:25:56.080Z,98801.94
2023-03-24T09:29:58.245Z,98803.50
2023-03-24T09:34:03.835Z,98791.88
2023-03-24T09:38:06.335Z,98787.44
2023-03-24T09:42:23.548Z,98792.81
2023-03-24T09:46:51.179Z,98779.19
2023-03-24T09:50:58.710Z,98776.53
2023-03-24T09:55:04.401Z,98771.75
2023-03-24T09:59:18.119Z,98766.63
2023-03-24T10:03:23.125Z,98774.28
2023-03-24T10:07:47.093Z,98774.97
2023-03-24T10:12:10.852Z,98767.13
2023-03-24T10:16:28.754Z,98768.72
2023-03-24T10:20:53.011Z,98765.00
2023-03-24T10:25:16.936Z,98761.59
2023-03-24T10:29:28.200Z,98764.59
2023-03-24T10:33:31.368Z,98756.50
2023-03-24T10:37:33.579Z,98748.66
2023-03-24T10:41:36.659Z,98751.13
2023-03-24T10:45:44.187Z,98727.63
2023-03-24T10:50:00.978Z,98729.41
2023-03-24T10:54:18.489Z,98731.34
2023-03-24T10:58:29.861Z,98728.31
2023-03-24T11:02:33.728Z,98718.41
2023-03-24T11:06:36.475Z,98721.22
2023-03-24T11:10:39.138Z,98725.34
2023-03-24T11:14:45.396Z,98723.94
2023-03-24T11:19:01.731Z,98712.53
2023-03-24T11:23:03.863Z,98682.47
2023-03-24T11:27:06.162Z,98715.19
2023-03-24T11:31:12.122Z,98707.25
2023-03-24T11:35:18.706Z,98703.44
2023-03-24T11:39:29.184Z,98712.50
2023-03-24T11:43:32.002Z,98704.59
2023-03-24T11:47:38.550Z,98697.06
2023-03-24T11:51:45.925Z,98679.72
2023-03-24T11:55:53.739Z,98674.50
2023-03-24T12:00:22.197Z,98656.22
2023-03-24T12:05:02.558Z,98656.97
2023-03-24T12:09:23.540Z,98647.28
2023-03-24T12:13:49.880Z,98647.28
2023-03-24T12:18:14.105Z,98649.34
2023-03-24T12:22:21.254Z,98632.50
2023-03-24T12:26:30.942Z,98622.31
2023-03-24T12:30:49.979Z,98612.19
2023-03-24T12:35:16.645Z,98606.94
2023-03-24T12:39:33.690Z,98606.47
2023-03-24T12:44:13.465Z,98613.09
2023-03-24T12:48:33.919Z,98608.53
2023-03-24T12:52:58.145Z,98603.47
2023-03-24T12:57:14.542Z,98597.16
2023-03-24T13:01:29.709Z,98581.28
2023-03-24T13:05:35.661Z,98574.75
2023-03-24T13:10:06.943Z,98566.97
2023-03-24T13:14:19.014Z,98560.13
2023-03-24T13:18:34.767Z,98556.97
2023-03-24T13:22:37.891Z,98567.59
2023-03-24T13:27:12.619Z,98554.09
2023-03-24T13:31:16.282Z,98556.97
2023-03-24T13:35:53.414Z,98553.75
2023-03-24T13:39:59.254Z,98552.66
2023-03-24T13:44:20.012Z,98540.25
2023-03-24T13:48:37.826Z,98520.81
2023-03-24T13:52:47.394Z,98525.78
2023-03-24T13:57:00.644Z,98512.72
2023-03-24T14:01:09.957Z,98511.59
2023-03-24T14:05:33.749Z,98503.66
2023-03-24T14:10:00.099Z,98495.97
2023-03-24T14:14:19.415Z,98478.00
2023-03-24T14:18:25.514Z,98473.94
2023-03-24T14:22:36.455Z,98479.34
2023-03-24T14:26:38.534Z,98481.56
2023-03-24T14:31:15.924Z,98468.63
2023-03-24T14:35:44.511Z,98467.09
2023-03-24T14:39:49.874Z,98453.63
2023-03-24T14:44:00.635Z,98454.63
2023-03-24T14:48:06.402Z,98462.28
2023-03-24T14:52:24.871Z,98465.19
2023-03-24T14:56:34.134Z,98462.66
2023-03-24T15:00:51.848Z,98467.44
2023-03-24T15:05:16.897Z,98469.34
2023-03-24T15:09:19.137Z,98463.00
2023-03-24T15:13:43.648Z,98442.66
2023-03-24T15:17:47.028Z,98449.03
2023-03-24T15:21:56.790Z,98443.97
2023-03-24T15:25:59.008Z,98456.34
2023-03-24T15:30:01.122Z,98449.69
2023-03-24T15:34:10.643Z,98440.81
2023-03-24T15:38:22.298Z,98449.03
2023-03-24T15:42:26.033Z,98439.63
2023-03-24T15:46:31.302Z,98447.25
2023-03-24T15:50:54.162Z,98454.91
2023-03-24T15:55:02.213Z,98463.00
2023-03-24T15:59:04.326Z,98462.53
2023-03-24T16:03:07.570Z,98458.22
2023-03-24T16:07:29.624Z,98456.88
2023-03-24T16:11:31.715Z,98462.81
2023-03-24T16:15:33.956Z,98466.97
2023-03-24T16:19:36.056Z,98469.66
2023-03-24T16:23:38.300Z,98469.72
2023-03-24T16:27:40.745Z,98485.19
2023-03-24T16:31:44.378Z,98488.69
2023-03-24T16:35:46.734Z,98484.22
2023-03-24T16:39:49.042Z,98478.09
2023-03-24T16:43:53.133Z,98493.56
2023-03-24T16:47:55.584Z,98494.88
2023-03-24T16:51:57.772Z,98495.78
2023-03-24T16:55:59.982Z,98510.88
2023-03-24T17:00:10.195Z,98514.97
2023-03-24T17:04:19.427Z,98525.56
2023-03-24T17:08:22.422Z,98523.06
2023-03-24T17:12:24.724Z,98533.22
2023-03-24T17:16:27.893Z,98525.22
2023-03-24T17:20:30.391Z,98517.69
2023-03-24T17:24:41.819Z,98521.50
2023-03-24T17:28:44.559Z,98518.56
2023-03-24T17:32:47.609Z,98518.47
2023-03-24T17:36:51.123Z,98514.94
2023-03-24T17:41:01.497Z,98528.56
2023-03-24T17:45:04.993Z,98530.00
2023-03-24T17:49:07.198Z,98534.44
2023-03-24T17:53:09.998Z,98535.88
2023-03-24T17:57:12.168Z,98534.97
2023-03-24T18:01:18.457Z,98533.63
2023-03-24T18:05:23.412Z,98555.72
2023-03-24T18:09:27.566Z,98556.84
2023-03-24T18:13:29.688Z,98556.94
2023-03-24T18:17:31.970Z,98556.25
2023-03-24T18:21:34.332Z,98562.78
2023-03-24T18:25:36.840Z,98552.72
2023-03-24T18:29:39.711Z,98564.53
2023-03-24T18:33:46.024Z,98574.25
2023-03-24T18:37:48.829Z,98563.88
2023-03-24T18:41:53.465Z,98574.88
2023-03-24T18:45:56.074Z,98589.09
2023-03-24T18:49:58.234Z,98593.13
2023-03-24T18:54:01.066Z,98601.69
2023-03-24T18:58:03.170Z,98608.63
2023-03-24T19:02:05.763Z,98616.44
2023-03-24T19:06:10.053Z,98622.81
2023-03-24T19:10:12.738Z,98615.13
2023-03-24T19:14:14.810Z,98615.13
2023-03-24T19:18:17.019Z,98614.66
2023-03-24T19:22:22.282Z,98616.06
2023-03-24T19:26:24.418Z,98610.53
2023-03-24T19:30:26.606Z,98606.22
2023-03-24T19:34:31.105Z,98603.22
2023-03-24T19:38:33.630Z,98598.16
2023-03-24T19:42:38.839Z,98598.97
2023-03-24T19:46:40.954Z,98604.06
2023-03-24T19:50:44.677Z,98608.88
2023-03-24T19:54:48.157Z,98612.63
2023-03-24T19:58:50.592Z,98617.44
2023-03-24T20:02:52.996Z,98611.88
2023-03-24T20:06:55.722Z,98606.56
2023-03-24T20:10:57.890Z,98600.44
2023-03-24T20:15:00.178Z,98601.19
2023-03-24T20:19:02.424Z,98584.13
2023-03-24T20:23:04.628Z,98584.94
2023-03-24T20:27:07.510Z,98582.03
2023-03-24T20:31:11.057Z,98576.44
2023-03-24T20:35:13.371Z,98574.91
2023-03-24T20:39:16.073Z,98572.28
2023-03-24T20:43:18.290Z,98582.66
2023-03-24T20:47:20.752Z,98569.09
2023-03-24T20:51:23.148Z,98567.75
2023-03-24T20:55:26.296Z,98565.34
2023-03-24T20:59:28.852Z,98569.59
2023-03-24T21:03:31.185Z,98586.66
2023-03-24T21:07:33.398Z,98589.34
2023-03-24T21:11:35.696Z,98588.31
2023-03-24T21:15:45.069Z,98579.22
2023-03-24T21:19:47.187Z,98565.91
2023-03-24T21:23:52.718Z,98556.53
2023-03-24T21:27:55.716Z,98540.81
2023-03-24T21:31:57.784Z,98543.47
2023-03-24T21:35:59.833Z,98562.16
2023-03-24T21:40:02.878Z,98557.38
2023-03-24T21:44:06.643Z,98565.09
2023-03-24T21:48:13.005Z,98576.81
2023-03-24T21:52:19.093Z,98578.63
2023-03-24T21:56:21.793Z,98569.34
2023-03-24T22:00:26.326Z,98564.53
2023-03-24T22:04:28.644Z,98562.69
2023-03-24T22:08:30.960Z,98549.06
2023-03-24T22:12:34.299Z,98546.94
2023-03-24T22:16:36.788Z,98554.63
2023-03-24T22:20:38.938Z,98553.25
2023-03-24T22:24:41.633Z,98554.78
2023-03-24T22:28:44.548Z,98550.53
2023-03-24T22:32:46.862Z,98535.38
2023-03-24T22:36:49.044Z,98529.00
2023-03-24T22:40:51.781Z,98528.16
2023-03-24T22:44:54.001Z,98523.03
2023-03-24T22:48:56.407Z,98527.03
2023-03-24T22:52:58.458Z,98516.66
2023-03-24T22:57:00.769Z,98505.47
2023-03-24T23:01:03.875Z,98509.72
2023-03-24T23:05:06.406Z,98514.72
2023-03-24T23:09:08.755Z,98516.72
2023-03-24T23:13:11.426Z,98512.75
2023-03-24T23:17:16.161Z,98517.53
2023-03-24T23:21:18.326Z,98530.25
2023-03-24T23:25:20.546Z,98536.84
2023-03-24T23:29:22.609Z,98547.69
2023-03-24T23:33:26.137Z,98540.97
2023-03-24T23:37:32.100Z,98523.44
2023-03-24T23:41:34.641Z,98526.97
2023-03-24T23:45:36.898Z,98534.94
2023-03-24T23:49:41.622Z,98528.31
2023-03-24T23:53:43.703Z,98520.13
2023-03-24T23:57:46.737Z,98505.56
